createdAt,value
2018-04-07T00:00:23.483Z,99817.37
2018-04-07T00:02:51.418Z,99818.11
2018-04-07T00:05:18.998Z,99810.41
2018-04-07T00:07:46.582Z,99816.85
2018-04-07T00:10:14.162Z,99809.55
2018-04-07T00:12:41.742Z,99812.56
2018-04-07T00:15:09.539Z,99818.52
2018-04-07T00:17:37.135Z,99822.02
2018-04-07T00:20:04.759Z,99816.22
2018-04-07T00:22:32.407Z,99817.83
2018-04-07T00:24:59.996Z,99814.84
2018-04-07T00:27:27.582Z,99816.10
2018-04-07T00:29:55.203Z,99819.09
2018-04-07T00:32:22.810Z,99822.83
2018-04-07T00:34:50.406Z,99829.50
2018-04-07T00:37:18.027Z,99825.41
2018-04-07T00:39:45.663Z,99829.67
2018-04-07T00:42:13.274Z,99826.25
2018-04-07T00:44:40.886Z,99834.15
2018-04-07T00:47:08.475Z,99831.05
2018-04-07T00:49:36.066Z,99825.19
2018-04-07T00:52:03.651Z,99820.64
2018-04-07T00:54:31.272Z,99825.73
2018-04-07T00:56:58.929Z,99831.56
2018-04-07T00:59:26.514Z,99832.48
2018-04-07T01:01:54.104Z,99837.05
2018-04-07T01:04:21.691Z,99840.09
2018-04-07T01:06:49.302Z,99842.20
2018-04-07T01:09:16.878Z,99846.88
2018-04-07T01:11:44.468Z,99842.89
2018-04-07T01:14:12.091Z,99841.41
2018-04-07T01:16:39.663Z,99840.08
2018-04-07T01:19:07.256Z,99841.06
2018-04-07T01:21:34.855Z,99846.89
2018-04-07T01:24:02.466Z,99841.34
2018-04-07T01:26:30.070Z,99848.63
2018-04-07T01:28:57.656Z,99853.64
2018-04-07T01:31:25.271Z,99851.05
2018-04-07T01:33:52.898Z,99849.03
2018-04-07T01:36:20.494Z,99862.45
2018-04-07T01:38:48.081Z,99862.81
2018-04-07T01:41:15.710Z,99869.50
2018-04-07T01:43:43.301Z,99870.63
2018-04-07T01:46:10.916Z,99880.66
2018-04-07T01:48:38.535Z,99878.42
2018-04-07T01:51:06.116Z,99880.73
2018-04-07T01:53:33.715Z,99878.87
2018-04-07T01:56:01.303Z,99880.05
2018-04-07T01:58:28.886Z,99878.53
2018-04-07T02:00:56.457Z,99877.50
2018-04-07T02:03:24.062Z,99879.14
2018-04-07T02:05:51.686Z,99873.92
2018-04-07T02:08:19.294Z,99874.14
2018-04-07T02:10:46.906Z,99872.09
2018-04-07T02:13:14.525Z,99878.83
2018-04-07T02:15:42.133Z,99892.83
2018-04-07T02:18:09.732Z,99880.63
2018-04-07T02:20:37.311Z,99881.58
2018-04-07T02:23:04.931Z,99884.95
2018-04-07T02:25:32.550Z,99880.66
2018-04-07T02:28:00.145Z,99887.70
2018-04-07T02:30:27.755Z,99891.86
2018-04-07T02:32:55.336Z,99899.86
2018-04-07T02:35:22.918Z,99892.50
2018-04-07T02:37:50.595Z,99901.81
2018-04-07T02:40:18.180Z,99900.11
2018-04-07T02:42:45.765Z,99902.86
2018-04-07T02:45:13.430Z,99902.43
2018-04-07T02:47:41.011Z,99905.39
2018-04-07T02:50:08.587Z,99910.58
2018-04-07T02:52:36.248Z,99913.62
2018-04-07T02:55:03.860Z,99915.77
2018-04-07T02:57:31.460Z,99914.95
2018-04-07T02:59:59.040Z,99916.76
2018-04-07T03:02:26.624Z,99922.50
2018-04-07T03:04:54.222Z,99929.57
2018-04-07T03:07:21.800Z,99931.22
2018-04-07T03:09:49.434Z,99935.59
2018-04-07T03:12:17.030Z,99935.53
2018-04-07T03:14:44.631Z,99941.47
2018-04-07T03:17:12.212Z,99935.80
2018-04-07T03:19:39.811Z,99935.38
2018-04-07T03:22:07.458Z,99933.29
2018-04-07T03:24:35.091Z,99939.34
2018-04-07T03:27:02.683Z,99934.20
2018-04-07T03:29:30.262Z,99934.99
2018-04-07T03:31:57.887Z,99949.19
2018-04-07T03:34:25.482Z,99951.91
2018-04-07T03:36:53.082Z,99952.05
2018-04-07T03:39:20.702Z,99956.82
2018-04-07T03:41:48.282Z,99960.57
2018-04-07T03:44:15.875Z,99964.89
2018-04-07T03:46:43.462Z,99973.91
2018-04-07T03:49:11.115Z,99978.48
2018-04-07T03:51:38.696Z,99987.77
2018-04-07T03:54:06.296Z,99994.06
2018-04-07T03:56:33.887Z,99999.59
2018-04-07T03:59:01.511Z,100009.14
2018-04-07T04:01:29.101Z,100004.34
2018-04-07T04:03:56.750Z,100018.48
2018-04-07T04:06:24.335Z,100025.59
2018-04-07T04:08:51.922Z,100019.86
2018-04-07T04:11:19.547Z,100025.14
2018-04-07T04:13:47.138Z,100028.90
2018-04-07T04:16:14.718Z,100028.39
2018-04-07T04:18:42.341Z,100030.77
2018-04-07T04:21:09.937Z,100029.75
2018-04-07T04:23:37.523Z,100036.34
2018-04-07T04:26:05.106Z,100041.17
2018-04-07T04:28:32.691Z,100042.65
2018-04-07T04:31:00.322Z,100048.08
2018-04-07T04:33:27.950Z,100047.45
2018-04-07T04:35:55.594Z,100046.22
2018-04-07T04:38:23.206Z,100043.30
2018-04-07T04:40:50.807Z,100050.32
2018-04-07T04:43:18.406Z,100050.11
2018-04-07T04:45:45.995Z,100058.94
2018-04-07T04:48:13.634Z,100056.70
2018-04-07T04:50:41.238Z,100065.06
2018-04-07T04:53:08.822Z,100062.07
2018-04-07T04:55:36.463Z,100069.67
2018-04-07T04:58:04.068Z,100073.94
2018-04-07T05:00:31.658Z,100075.26
2018-04-07T05:02:59.356Z,100080.95
2018-04-07T05:05:26.953Z,100080.27
2018-04-07T05:07:54.534Z,100083.67
2018-04-07T05:10:22.203Z,100083.45
2018-04-07T05:12:49.827Z,100084.63
2018-04-07T05:15:17.557Z,100079.57
2018-04-07T05:17:45.174Z,100084.23
2018-04-07T05:20:12.839Z,100089.00
2018-04-07T05:22:40.458Z,100087.87
2018-04-07T05:25:08.047Z,100085.86
2018-04-07T05:27:35.714Z,100080.08
2018-04-07T05:30:03.311Z,100075.88
2018-04-07T05:32:31.517Z,100079.47
2018-04-07T05:34:59.124Z,100083.08
2018-04-07T05:37:26.726Z,100083.66
2018-04-07T05:39:54.385Z,100090.30
2018-04-07T05:42:22.059Z,100087.54
2018-04-07T05:44:49.703Z,100097.66
2018-04-07T05:47:17.330Z,100105.76
2018-04-07T05:49:44.970Z,100105.34
2018-04-07T05:52:12.588Z,100112.68
2018-04-07T05:54:40.240Z,100109.23
2018-04-07T05:57:07.843Z,100115.88
2018-04-07T05:59:35.466Z,100113.23
2018-04-07T06:02:03.071Z,100119.29
2018-04-07T06:04:30.651Z,100123.10
2018-04-07T06:06:58.243Z,100125.14
2018-04-07T06:09:25.980Z,100124.77
2018-04-07T06:11:53.566Z,100129.30
2018-04-07T06:14:21.202Z,100134.05
2018-04-07T06:16:48.839Z,100136.03
2018-04-07T06:19:16.471Z,100138.43
2018-04-07T06:21:44.086Z,100133.58
2018-04-07T06:24:11.749Z,100134.05
2018-04-07T06:26:39.352Z,100137.49
2018-04-07T06:29:06.934Z,100144.09
2018-04-07T06:31:34.539Z,100147.48
2018-04-07T06:34:02.195Z,100146.23
2018-04-07T06:36:29.826Z,100150.72
2018-04-07T06:38:57.411Z,100150.19
2018-04-07T06:41:25.042Z,100157.64
2018-04-07T06:43:52.642Z,100153.37
2018-04-07T06:46:20.279Z,100152.67
2018-04-07T06:48:47.902Z,100158.44
2018-04-07T06:51:15.499Z,100160.99
2018-04-07T06:53:43.173Z,100165.19
2018-04-07T06:56:10.772Z,100175.66
2018-04-07T06:58:38.359Z,100165.60
2018-04-07T07:01:05.974Z,100177.42
2018-04-07T07:03:33.571Z,100179.28
2018-04-07T07:06:01.191Z,100182.42
2018-04-07T07:08:28.858Z,100187.09
2018-04-07T07:10:56.454Z,100189.92
2018-04-07T07:13:24.124Z,100195.77
2018-04-07T07:15:51.791Z,100200.91
2018-04-07T07:18:19.536Z,100199.47
2018-04-07T07:20:47.142Z,100200.42
2018-04-07T07:23:14.768Z,100209.47
2018-04-07T07:25:42.437Z,100214.39
2018-04-07T07:28:10.060Z,100219.83
2018-04-07T07:30:37.648Z,100223.86
2018-04-07T07:33:05.279Z,100224.16
2018-04-07T07:35:32.874Z,100223.58
2018-04-07T07:38:00.485Z,100226.69
2018-04-07T07:40:28.075Z,100226.22
2018-04-07T07:42:55.750Z,100231.98
2018-04-07T07:45:23.347Z,100229.73
2018-04-07T07:47:50.959Z,100226.58
2018-04-07T07:50:18.603Z,100230.70
2018-04-07T07:52:46.207Z,100231.05
2018-04-07T07:55:13.894Z,100234.30
2018-04-07T07:57:41.483Z,100236.29
2018-04-07T08:00:09.072Z,100240.25
2018-04-07T08:02:36.735Z,100233.71
2018-04-07T08:05:04.352Z,100237.02
2018-04-07T08:07:32.496Z,100230.47
2018-04-07T08:10:00.118Z,100238.06
2018-04-07T08:12:27.743Z,100242.64
2018-04-07T08:14:55.374Z,100242.97
2018-04-07T08:17:22.971Z,100243.45
2018-04-07T08:19:50.571Z,100242.24
2018-04-07T08:22:18.190Z,100235.62
2018-04-07T08:24:45.818Z,100245.22
2018-04-07T08:27:13.426Z,100241.92
2018-04-07T08:29:41.046Z,100236.20
2018-04-07T08:32:08.735Z,100232.95
2018-04-07T08:34:36.403Z,100237.37
2018-04-07T08:37:03.990Z,100231.28
2018-04-07T08:39:31.663Z,100235.97
2018-04-07T08:41:59.191Z,100229.63
2018-04-07T08:44:26.819Z,100235.17
2018-04-07T08:46:54.446Z,100237.58
2018-04-07T08:49:22.055Z,100240.34
2018-04-07T08:51:49.639Z,100237.11
2018-04-07T08:54:17.279Z,100234.23
2018-04-07T08:56:44.908Z,100227.63
2018-04-07T08:59:12.578Z,100229.06
2018-04-07T09:01:40.191Z,100229.66
2018-04-07T09:04:07.793Z,100230.30
2018-04-07T09:06:35.410Z,100230.03
2018-04-07T09:09:03.047Z,100230.32
2018-04-07T09:11:30.695Z,100229.73
2018-04-07T09:13:58.290Z,100225.49
2018-04-07T09:16:25.875Z,100234.02
2018-04-07T09:18:53.502Z,100220.75
2018-04-07T09:21:21.083Z,100222.47
2018-04-07T09:23:48.683Z,100218.23
2018-04-07T09:26:16.306Z,100220.05
2018-04-07T09:28:43.894Z,100221.30
2018-04-07T09:31:18.115Z,100218.17
2018-04-07T09:33:45.750Z,100228.23
2018-04-07T09:36:14.334Z,100224.61
2018-04-07T09:38:41.924Z,100221.56
2018-04-07T09:41:09.569Z,100222.18
2018-04-07T09:43:37.172Z,100221.76
2018-04-07T09:46:04.800Z,100226.40
2018-04-07T09:48:32.483Z,100224.44
2018-04-07T09:51:00.112Z,100223.59
2018-04-07T09:53:27.698Z,100220.36
2018-04-07T09:55:55.334Z,100214.05
2018-04-07T09:58:22.943Z,100223.30
2018-04-07T10:00:50.552Z,100220.33
2018-04-07T10:03:22.051Z,100212.98
2018-04-07T10:05:50.443Z,100209.84
2018-04-07T10:08:18.032Z,100213.72
2018-04-07T10:10:45.774Z,100211.39
2018-04-07T10:13:13.380Z,100204.26
2018-04-07T10:15:40.979Z,100205.58
2018-04-07T10:18:08.579Z,100198.64
2018-04-07T10:20:36.174Z,100201.62
2018-04-07T10:23:03.799Z,100202.56
2018-04-07T10:25:31.499Z,100197.09
2018-04-07T10:27:59.139Z,100194.02
2018-04-07T10:30:26.753Z,100190.05
2018-04-07T10:32:55.307Z,100193.34
2018-04-07T10:35:22.964Z,100191.48
2018-04-07T10:37:50.603Z,100187.39
2018-04-07T10:40:18.224Z,100190.36
2018-04-07T10:42:45.928Z,100186.91
2018-04-07T10:45:13.643Z,100183.87
2018-04-07T10:47:41.275Z,100185.00
2018-04-07T10:50:08.992Z,100174.27
2018-04-07T10:52:36.635Z,100162.69
2018-04-07T10:55:04.323Z,100169.58
2018-04-07T10:57:32.031Z,100173.02
2018-04-07T10:59:59.679Z,100174.22
2018-04-07T11:02:27.319Z,100173.91
2018-04-07T11:04:55.336Z,100173.28
2018-04-07T11:07:22.927Z,100169.59
2018-04-07T11:09:50.512Z,100176.84
2018-04-07T11:12:18.112Z,100180.35
2018-04-07T11:14:45.755Z,100183.05
2018-04-07T11:17:13.362Z,100173.34
2018-04-07T11:19:40.962Z,100166.78
2018-04-07T11:22:08.603Z,100171.45
2018-04-07T11:24:36.219Z,100168.87
2018-04-07T11:27:03.836Z,100172.69
2018-04-07T11:29:31.431Z,100160.51
2018-04-07T11:31:59.016Z,100156.64
2018-04-07T11:34:26.618Z,100151.97
2018-04-07T11:36:55.827Z,100156.14
2018-04-07T11:39:23.874Z,100152.00
2018-04-07T11:41:51.475Z,100147.25
2018-04-07T11:44:19.067Z,100143.53
2018-04-07T11:46:46.663Z,100145.35
2018-04-07T11:49:14.318Z,100147.50
2018-04-07T11:51:41.910Z,100147.25
2018-04-07T11:54:09.557Z,100140.12
2018-04-07T11:56:37.131Z,100145.02
2018-04-07T11:59:04.739Z,100147.59
2018-04-07T12:01:32.421Z,100149.77
2018-04-07T12:04:00.011Z,100150.39
2018-04-07T12:06:27.594Z,100141.41
2018-04-07T12:08:55.214Z,100140.61
2018-04-07T12:11:22.806Z,100138.03
2018-04-07T12:13:50.387Z,100138.08
2018-04-07T12:16:18.127Z,100131.73
2018-04-07T12:18:45.744Z,100128.90
2018-04-07T12:21:13.399Z,100125.70
2018-04-07T12:23:41.015Z,100118.94
2018-04-07T12:26:08.704Z,100117.37
2018-04-07T12:28:36.292Z,100116.33
2018-04-07T12:31:03.899Z,100113.77
2018-04-07T12:33:31.522Z,100117.48
2018-04-07T12:35:59.108Z,100121.57
2018-04-07T12:38:26.696Z,100117.80
2018-04-07T12:40:54.414Z,100113.23
2018-04-07T12:43:22.007Z,100109.70
2018-04-07T12:45:49.636Z,100109.23
2018-04-07T12:48:17.252Z,100105.51
2018-04-07T12:50:45.591Z,100110.41
2018-04-07T12:53:13.183Z,100100.47
2018-04-07T12:55:40.862Z,100101.72
2018-04-07T12:58:08.480Z,100102.41
2018-04-07T13:00:36.076Z,100095.07
2018-04-07T13:03:03.654Z,100095.02
2018-04-07T13:05:31.259Z,100100.27
2018-04-07T13:07:58.896Z,100092.39
2018-04-07T13:10:26.586Z,100090.75
2018-04-07T13:12:54.167Z,100087.96
2018-04-07T13:15:21.787Z,100087.21
2018-04-07T13:17:49.374Z,100088.41
2018-04-07T13:20:16.963Z,100084.03
2018-04-07T13:22:44.571Z,100090.97
2018-04-07T13:25:12.248Z,100089.26
2018-04-07T13:27:39.874Z,100099.38
2018-04-07T13:30:07.467Z,100099.19
2018-04-07T13:32:35.103Z,100097.17
2018-04-07T13:35:02.698Z,100096.26
2018-04-07T13:37:30.290Z,100097.25
2018-04-07T13:39:57.921Z,100094.12
2018-04-07T13:42:25.542Z,100099.80
2018-04-07T13:44:53.124Z,100098.05
2018-04-07T13:47:20.796Z,100100.46
2018-04-07T13:49:48.390Z,100089.27
2018-04-07T13:52:15.971Z,100087.27
2018-04-07T13:54:43.575Z,100087.50
2018-04-07T13:57:11.211Z,100091.77
2018-04-07T13:59:38.796Z,100093.84
2018-04-07T14:02:06.402Z,100093.27
2018-04-07T14:04:34.034Z,100099.03
2018-04-07T14:07:01.699Z,100093.02
2018-04-07T14:09:29.319Z,100096.31
2018-04-07T14:11:56.939Z,100098.36
2018-04-07T14:14:24.568Z,100097.43
2018-04-07T14:16:52.176Z,100091.67
2018-04-07T14:19:19.819Z,100093.69
2018-04-07T14:21:47.451Z,100094.58
2018-04-07T14:24:15.036Z,100094.62
2018-04-07T14:26:42.618Z,100100.70
2018-04-07T14:29:10.203Z,100101.97
2018-04-07T14:31:37.823Z,100097.38
2018-04-07T14:34:05.474Z,100094.13
2018-04-07T14:36:33.068Z,100101.36
2018-04-07T14:39:00.650Z,100090.48
2018-04-07T14:41:28.327Z,100091.48
2018-04-07T14:43:55.921Z,100089.49
2018-04-07T14:46:23.535Z,100087.16
2018-04-07T14:48:51.231Z,100091.17
2018-04-07T14:51:18.806Z,100085.97
2018-04-07T14:53:46.390Z,100089.47
2018-04-07T14:56:14.028Z,100092.39
2018-04-07T14:58:42.482Z,100088.77
2018-04-07T15:01:10.083Z,100093.00
2018-04-07T15:03:37.711Z,100092.02
2018-04-07T15:06:05.297Z,100093.24
2018-04-07T15:08:32.890Z,100092.11
2018-04-07T15:11:00.503Z,100093.23
2018-04-07T15:13:28.163Z,100090.61
2018-04-07T15:15:55.714Z,100097.16
2018-04-07T15:18:23.318Z,100102.42
2018-04-07T15:20:50.940Z,100104.23
2018-04-07T15:23:18.530Z,100100.03
2018-04-07T15:25:46.119Z,100106.55
2018-04-07T15:28:13.702Z,100094.19
2018-04-07T15:30:41.282Z,100098.66
2018-04-07T15:33:08.874Z,100094.66
2018-04-07T15:35:36.463Z,100091.59
2018-04-07T15:38:04.094Z,100093.11
2018-04-07T15:40:31.699Z,100098.19
2018-04-07T15:42:59.335Z,100105.44
2018-04-07T15:45:26.915Z,100104.56
2018-04-07T15:47:54.494Z,100102.52
2018-04-07T15:50:22.084Z,100096.78
2018-04-07T15:52:49.715Z,100101.16
2018-04-07T15:55:17.303Z,100106.45
2018-04-07T15:57:44.899Z,100114.82
2018-04-07T16:00:12.510Z,100113.78
2018-04-07T16:02:40.103Z,100121.98
2018-04-07T16:05:07.741Z,100124.55
2018-04-07T16:07:35.430Z,100131.04
2018-04-07T16:10:03.066Z,100131.90
2018-04-07T16:12:30.694Z,100131.12
2018-04-07T16:14:58.314Z,100134.38
2018-04-07T16:17:25.957Z,100139.92
2018-04-07T16:19:53.546Z,100134.47
2018-04-07T16:22:21.144Z,100132.65
2018-04-07T16:24:48.734Z,100132.60
2018-04-07T16:27:16.362Z,100129.89
2018-04-07T16:29:44.052Z,100131.67
2018-04-07T16:32:11.640Z,100123.86
2018-04-07T16:34:39.227Z,100133.59
2018-04-07T16:37:06.835Z,100134.22
2018-04-07T16:39:34.511Z,100141.95
2018-04-07T16:42:02.207Z,100148.20
2018-04-07T16:44:32.743Z,100159.41
2018-04-07T16:47:00.466Z,100149.92
2018-04-07T16:49:28.119Z,100153.31
2018-04-07T16:51:55.715Z,100152.27
2018-04-07T16:54:23.338Z,100158.12
2018-04-07T16:56:50.944Z,100156.17
2018-04-07T16:59:18.567Z,100160.05
2018-04-07T17:01:46.200Z,100158.59
2018-04-07T17:04:13.786Z,100160.44
2018-04-07T17:06:41.375Z,100165.44
2018-04-07T17:09:10.069Z,100158.41
2018-04-07T17:11:37.723Z,100160.67
2018-04-07T17:14:05.319Z,100162.37
2018-04-07T17:16:32.938Z,100166.09
2018-04-07T17:19:00.528Z,100170.97
2018-04-07T17:21:28.126Z,100172.44
2018-04-07T17:23:55.767Z,100183.81
2018-04-07T17:26:23.377Z,100188.66
2018-04-07T17:28:51.000Z,100192.66
2018-04-07T17:31:18.623Z,100193.70
2018-04-07T17:33:46.231Z,100194.67
2018-04-07T17:36:13.880Z,100202.73
2018-04-07T17:38:41.567Z,100204.14
2018-04-07T17:41:09.163Z,100213.45
2018-04-07T17:43:36.774Z,100215.78
2018-04-07T17:46:04.376Z,100219.97
2018-04-07T17:48:32.019Z,100223.89
2018-04-07T17:50:59.619Z,100228.97
2018-04-07T17:53:27.218Z,100230.25
2018-04-07T17:55:54.931Z,100233.22
2018-04-07T17:58:22.527Z,100233.38
2018-04-07T18:00:50.115Z,100228.41
2018-04-07T18:03:17.711Z,100237.27
2018-04-07T18:05:45.297Z,100239.89
2018-04-07T18:08:12.920Z,100237.22
2018-04-07T18:10:40.533Z,100251.88
2018-04-07T18:13:08.158Z,100256.70
2018-04-07T18:15:35.786Z,100257.44
2018-04-07T18:18:03.390Z,100261.25
2018-04-07T18:20:30.976Z,100265.52
2018-04-07T18:22:58.563Z,100268.50
2018-04-07T18:25:26.148Z,100263.97
2018-04-07T18:27:53.779Z,100263.13
2018-04-07T18:30:21.378Z,100268.40
2018-04-07T18:32:49.006Z,100279.25
2018-04-07T18:35:16.602Z,100273.70
2018-04-07T18:37:44.198Z,100273.45
2018-04-07T18:40:11.831Z,100282.38
2018-04-07T18:42:39.475Z,100285.13
2018-04-07T18:45:07.058Z,100277.80
2018-04-07T18:47:34.698Z,100278.81
2018-04-07T18:50:02.291Z,100286.78
2018-04-07T18:52:29.899Z,100290.91
2018-04-07T18:54:57.526Z,100294.31
2018-04-07T18:57:25.140Z,100297.83
2018-04-07T18:59:52.759Z,100296.08
2018-04-07T19:02:20.347Z,100288.56
2018-04-07T19:04:47.999Z,100292.62
2018-04-07T19:07:15.643Z,100298.39
2018-04-07T19:09:43.318Z,100304.77
2018-04-07T19:12:10.907Z,100307.43
2018-04-07T19:14:38.499Z,100313.20
2018-04-07T19:17:06.167Z,100319.47
2018-04-07T19:19:33.795Z,100316.95
2018-04-07T19:22:01.379Z,100315.06
2018-04-07T19:24:29.007Z,100314.57
2018-04-07T19:26:56.594Z,100319.66
2018-04-07T19:29:24.247Z,100318.17
2018-04-07T19:31:51.842Z,100314.83
2018-04-07T19:34:19.450Z,100319.69
2018-04-07T19:36:47.082Z,100323.73
2018-04-07T19:39:14.679Z,100327.31
2018-04-07T19:41:42.303Z,100329.19
2018-04-07T19:44:09.895Z,100330.33
2018-04-07T19:46:37.483Z,100332.17
2018-04-07T19:49:05.083Z,100338.73
2018-04-07T19:51:32.727Z,100339.61
2018-04-07T19:54:00.408Z,100346.89
2018-04-07T19:56:28.006Z,100348.04
2018-04-07T19:58:55.607Z,100345.23
2018-04-07T20:01:23.208Z,100348.53
2018-04-07T20:03:50.827Z,100344.08
2018-04-07T20:06:18.451Z,100342.60
2018-04-07T20:08:46.044Z,100336.63
2018-04-07T20:11:13.636Z,100343.22
2018-04-07T20:13:41.241Z,100346.88
2018-04-07T20:16:08.898Z,100345.98
2018-04-07T20:18:36.522Z,100346.27
2018-04-07T20:21:04.202Z,100344.25
2018-04-07T20:23:31.790Z,100347.02
2018-04-07T20:25:59.502Z,100345.02
2018-04-07T20:28:27.083Z,100345.39
2018-04-07T20:30:54.731Z,100343.17
2018-04-07T20:33:22.318Z,100350.75
2018-04-07T20:35:49.906Z,100353.58
2018-04-07T20:38:17.571Z,100349.76
2018-04-07T20:40:56.130Z,100352.42
2018-04-07T20:43:25.611Z,100354.41
2018-04-07T20:45:53.258Z,100357.27
2018-04-07T20:48:20.854Z,100357.56
2018-04-07T20:50:48.459Z,100366.53
2018-04-07T20:53:16.051Z,100374.44
2018-04-07T20:55:43.678Z,100365.57
2018-04-07T20:58:11.325Z,100370.76
2018-04-07T21:00:38.957Z,100364.44
2018-04-07T21:03:06.627Z,100370.20
2018-04-07T21:05:34.227Z,100362.61
2018-04-07T21:08:01.875Z,100365.12
2018-04-07T21:10:29.510Z,100370.55
2018-04-07T21:12:57.112Z,100370.59
2018-04-07T21:15:24.743Z,100364.62
2018-04-07T21:17:52.395Z,100368.77
2018-04-07T21:20:19.982Z,100357.82
2018-04-07T21:22:47.622Z,100361.53
2018-04-07T21:25:15.231Z,100370.70
2018-04-07T21:27:42.843Z,100374.88
2018-04-07T21:30:10.446Z,100369.75
2018-04-07T21:32:38.041Z,100377.54
2018-04-07T21:35:05.661Z,100375.92
2018-04-07T21:37:33.318Z,100372.87
2018-04-07T21:40:00.951Z,100373.73
2018-04-07T21:42:28.566Z,100372.52
2018-04-07T21:44:56.151Z,100374.10
2018-04-07T21:47:23.783Z,100374.92
2018-04-07T21:49:51.399Z,100368.60
2018-04-07T21:52:18.995Z,100372.81
2018-04-07T21:54:46.658Z,100372.20
2018-04-07T21:57:14.252Z,100377.11
2018-04-07T21:59:41.863Z,100367.80
2018-04-07T22:02:09.482Z,100359.26
2018-04-07T22:04:37.128Z,100361.77
2018-04-07T22:07:04.718Z,100361.16
2018-04-07T22:09:32.318Z,100364.34
2018-04-07T22:12:00.049Z,100370.95
2018-04-07T22:14:27.639Z,100372.87
2018-04-07T22:16:55.272Z,100370.39
2018-04-07T22:19:22.934Z,100369.66
2018-04-07T22:21:50.555Z,100369.63
2018-04-07T22:24:18.190Z,100365.11
2018-04-07T22:26:45.833Z,100367.59
2018-04-07T22:29:13.515Z,100362.73
2018-04-07T22:31:41.175Z,100366.13
2018-04-07T22:34:08.775Z,100368.16
2018-04-07T22:36:36.378Z,100372.64
2018-04-07T22:39:04.079Z,100369.25
2018-04-07T22:41:31.698Z,100374.76
2018-04-07T22:43:59.289Z,100369.64
2018-04-07T22:46:26.923Z,100365.97
2018-04-07T22:48:54.514Z,100369.52
2018-04-07T22:51:22.122Z,100363.58
2018-04-07T22:53:49.781Z,100364.41
2018-04-07T22:56:17.401Z,100362.63
2018-04-07T22:58:44.998Z,100362.88
2018-04-07T23:01:12.637Z,100359.24
2018-04-07T23:03:40.252Z,100359.22
2018-04-07T23:06:07.843Z,100352.19
2018-04-07T23:08:35.463Z,100347.91
2018-04-07T23:11:03.115Z,100352.64
2018-04-07T23:13:30.815Z,100351.05
2018-04-07T23:15:58.409Z,100353.30
2018-04-07T23:18:26.568Z,100352.36
2018-04-07T23:20:54.211Z,100349.06
2018-04-07T23:23:21.839Z,100348.41
2018-04-07T23:25:49.439Z,100341.65
2018-04-07T23:28:17.038Z,100340.09
2018-04-07T23:30:44.675Z,100345.09
2018-04-07T23:33:12.298Z,100339.13
2018-04-07T23:35:39.911Z,100340.40
2018-04-07T23:38:07.602Z,100340.17
2018-04-07T23:40:35.235Z,100336.98
2018-04-07T23:43:02.835Z,100340.73
2018-04-07T23:45:30.435Z,100343.48
2018-04-07T23:47:58.043Z,100343.87
2018-04-07T23:50:25.658Z,100339.16
2018-04-07T23:52:53.269Z,100344.19
2018-04-07T23:55:20.897Z,100351.88
2018-04-07T23:57:48.483Z,100341.36
